sensor_id;sensor_type;location;lat;lon;timestamp;pressure;altitude;pressure_sealevel;temperature;humidity
73941;BME280;62294;48.554;10.202;2023-05-29T00:00:27;91739.25;;;8.31;100.00
73941;BME280;62294;48.554;10.202;2023-05-29T00:02:55;91730.56;;;8.30;100.00
73941;BME280;62294;48.554;10.202;2023-05-29T00:05:21;91718.41;;;8.29;100.00
73941;BME280;62294;48.554;10.202;2023-05-29T00:07:48;91718.06;;;8.22;100.00
73941;BME280;62294;48.554;10.202;2023-05-29T00:10:16;91712.44;;;8.15;100.00
73941;BME280;62294;48.554;10.202;2023-05-29T00:12:43;91703.72;;;8.15;100.00
73941;BME280;62294;48.554;10.202;2023-05-29T00:15:10;91725.22;;;8.13;100.00
73941;BME280;62294;48.554;10.202;2023-05-29T00:17:36;91716.50;;;8.13;100.00
73941;BME280;62294;48.554;10.202;2023-05-29T00:20:05;91701.41;;;8.13;100.00
73941;BME280;62294;48.554;10.202;2023-05-29T00:22:36;91679.19;;;8.14;100.00
73941;BME280;62294;48.554;10.202;2023-05-29T00:25:06;91667.97;;;8.09;100.00
73941;BME280;62294;48.554;10.202;2023-05-29T00:27:34;91661.75;;;8.05;100.00
73941;BME280;62294;48.554;10.202;2023-05-29T00:30:01;91662.03;;;7.86;100.00
73941;BME280;62294;48.554;10.202;2023-05-29T00:32:28;91647.41;;;7.88;100.00
73941;BME280;62294;48.554;10.202;2023-05-29T00:34:54;91637.31;;;7.82;100.00
73941;BME280;62294;48.554;10.202;2023-05-29T00:37:22;91626.72;;;7.82;100.00
73941;BME280;62294;48.554;10.202;2023-05-29T00:39:48;91627.94;;;7.76;100.00
73941;BME280;62294;48.554;10.202;2023-05-29T00:42:15;91624.69;;;7.70;100.00
73941;BME280;62294;48.554;10.202;2023-05-29T00:44:42;91607.91;;;7.66;100.00
73941;BME280;62294;48.554;10.202;2023-05-29T00:47:09;91602.44;;;7.63;100.00
73941;BME280;62294;48.554;10.202;2023-05-29T00:49:37;91573.38;;;7.63;100.00
73941;BME280;62294;48.554;10.202;2023-05-29T00:52:05;91569.34;;;7.57;100.00
73941;BME280;62294;48.554;10.202;2023-05-29T00:54:33;91549.28;;;7.56;100.00
73941;BME280;62294;48.554;10.202;2023-05-29T00:57:01;91547.56;;;7.51;100.00
73941;BME280;62294;48.554;10.202;2023-05-29T00:59:32;91551.59;;;7.40;100.00
73941;BME280;62294;48.554;10.202;2023-05-29T01:02:01;91565.06;;;7.30;100.00
73941;BME280;62294;48.554;10.202;2023-05-29T01:04:29;91546.91;;;7.29;100.00
73941;BME280;62294;48.554;10.202;2023-05-29T01:06:56;91541.94;;;7.27;100.00
73941;BME280;62294;48.554;10.202;2023-05-29T01:09:23;91525.63;;;7.34;100.00
73941;BME280;62294;48.554;10.202;2023-05-29T01:11:59;91511.03;;;7.28;100.00
73941;BME280;62294;48.554;10.202;2023-05-29T01:14:54;91497.81;;;7.28;100.00
73941;BME280;62294;48.554;10.202;2023-05-29T01:17:31;91473.44;;;7.31;100.00
73941;BME280;62294;48.554;10.202;2023-05-29T01:20:11;91465.34;;;7.27;100.00
73941;BME280;62294;48.554;10.202;2023-05-29T01:25:32;91446.25;;;7.22;100.00
73941;BME280;62294;48.554;10.202;2023-05-29T01:28:04;91442.22;;;7.15;100.00
73941;BME280;62294;48.554;10.202;2023-05-29T01:30:32;91441.28;;;7.11;100.00
73941;BME280;62294;48.554;10.202;2023-05-29T01:32:59;91446.69;;;7.06;100.00
73941;BME280;62294;48.554;10.202;2023-05-29T01:35:26;91438.91;;;7.01;100.00
73941;BME280;62294;48.554;10.202;2023-05-29T01:37:52;91448.38;;;6.94;100.00
73941;BME280;62294;48.554;10.202;2023-05-29T01:40:21;91432.84;;;6.92;100.00
73941;BME280;62294;48.554;10.202;2023-05-29T01:42:49;91417.66;;;6.98;100.00
73941;BME280;62294;48.554;10.202;2023-05-29T01:45:18;91406.31;;;6.97;100.00
73941;BME280;62294;48.554;10.202;2023-05-29T01:47:45;91393.91;;;6.98;100.00
73941;BME280;62294;48.554;10.202;2023-05-29T01:50:13;91377.59;;;7.04;100.00
73941;BME280;62294;48.554;10.202;2023-05-29T01:52:41;91376.66;;;6.92;100.00
73941;BME280;62294;48.554;10.202;2023-05-29T01:55:08;91362.38;;;6.93;100.00
73941;BME280;62294;48.554;10.202;2023-05-29T01:57:35;91341.88;;;6.98;100.00
73941;BME280;62294;48.554;10.202;2023-05-29T02:00:03;91332.72;;;6.96;100.00
73941;BME280;62294;48.554;10.202;2023-05-29T02:02:38;91330.06;;;6.96;100.00
73941;BME280;62294;48.554;10.202;2023-05-29T02:05:07;91328.38;;;6.91;100.00
73941;BME280;62294;48.554;10.202;2023-05-29T02:07:35;91314.72;;;6.89;100.00
73941;BME280;62294;48.554;10.202;2023-05-29T02:10:04;91319.69;;;6.82;100.00
73941;BME280;62294;48.554;10.202;2023-05-29T02:12:32;91328.38;;;6.74;100.00
73941;BME280;62294;48.554;10.202;2023-05-29T02:14:58;91328.38;;;6.74;100.00
73941;BME280;62294;48.554;10.202;2023-05-29T02:17:25;91318.59;;;6.75;100.00
73941;BME280;62294;48.554;10.202;2023-05-29T02:19:52;91308.84;;;6.75;100.00
73941;BME280;62294;48.554;10.202;2023-05-29T02:22:18;91301.38;;;6.77;100.00
73941;BME280;62294;48.554;10.202;2023-05-29T02:24:45;91286.47;;;6.81;100.00
73941;BME280;62294;48.554;10.202;2023-05-29T02:27:11;91294.53;;;6.76;100.00
73941;BME280;62294;48.554;10.202;2023-05-29T02:29:38;91327.91;;;6.72;100.00
73941;BME280;62294;48.554;10.202;2023-05-29T02:32:04;91319.69;;;6.74;100.00
73941;BME280;62294;48.554;10.202;2023-05-29T02:34:31;91315.19;;;6.74;100.00
73941;BME280;62294;48.554;10.202;2023-05-29T02:36:58;91320.16;;;6.67;100.00
73941;BME280;62294;48.554;10.202;2023-05-29T02:39:25;91329.31;;;6.61;100.00
73941;BME280;62294;48.554;10.202;2023-05-29T02:41:52;91329.31;;;6.61;100.00
73941;BME280;62294;48.554;10.202;2023-05-29T02:44:19;91327.75;;;6.60;100.00
73941;BME280;62294;48.554;10.202;2023-05-29T02:46:45;91319.50;;;6.62;100.00
73941;BME280;62294;48.554;10.202;2023-05-29T02:49:16;91307.41;;;6.61;100.00
73941;BME280;62294;48.554;10.202;2023-05-29T02:51:43;91309.41;;;6.55;100.00
73941;BME280;62294;48.554;10.202;2023-05-29T02:54:09;91311.72;;;6.48;100.00
73941;BME280;62294;48.554;10.202;2023-05-29T02:56:39;91303.22;;;6.42;100.00
73941;BME280;62294;48.554;10.202;2023-05-29T02:59:05;91303.53;;;6.41;100.00
73941;BME280;62294;48.554;10.202;2023-05-29T03:01:32;91295.13;;;6.39;100.00
73941;BME280;62294;48.554;10.202;2023-05-29T03:03:59;91290.97;;;6.38;100.00
73941;BME280;62294;48.554;10.202;2023-05-29T03:06:26;91271.25;;;6.44;100.00
73941;BME280;62294;48.554;10.202;2023-05-29T03:08:52;91272.97;;;6.40;100.00
73941;BME280;62294;48.554;10.202;2023-05-29T03:11:19;91280.88;;;6.40;100.00
73941;BME280;62294;48.554;10.202;2023-05-29T03:13:49;91273.09;;;6.35;100.00
73941;BME280;62294;48.554;10.202;2023-05-29T03:16:16;91260.72;;;6.35;100.00
73941;BME280;62294;48.554;10.202;2023-05-29T03:18:43;91261.78;;;6.34;100.00
73941;BME280;62294;48.554;10.202;2023-05-29T03:21:10;91257.59;;;6.33;100.00
73941;BME280;62294;48.554;10.202;2023-05-29T03:23:36;91249.84;;;6.28;100.00
73941;BME280;62294;48.554;10.202;2023-05-29T03:26:04;91254.78;;;6.30;100.00
73941;BME280;62294;48.554;10.202;2023-05-29T03:28:31;91239.63;;;6.35;100.00
73941;BME280;62294;48.554;10.202;2023-05-29T03:30:58;91543.13;;;6.34;100.00
73941;BME280;62294;48.554;10.202;2023-05-29T03:33:25;91644.59;;;6.36;100.00
73941;BME280;62294;48.554;10.202;2023-05-29T03:35:51;91728.28;;;6.31;100.00
73941;BME280;62294;48.554;10.202;2023-05-29T03:38:17;91759.03;;;6.35;100.00
73941;BME280;62294;48.554;10.202;2023-05-29T03:40:44;91798.41;;;6.32;100.00
73941;BME280;62294;48.554;10.202;2023-05-29T03:43:11;91823.38;;;6.34;100.00
73941;BME280;62294;48.554;10.202;2023-05-29T03:45:37;91844.09;;;6.41;100.00
73941;BME280;62294;48.554;10.202;2023-05-29T03:48:04;91831.00;;;6.50;100.00
73941;BME280;62294;48.554;10.202;2023-05-29T03:50:31;91887.34;;;6.54;100.00
73941;BME280;62294;48.554;10.202;2023-05-29T03:52:57;91895.16;;;6.59;100.00
73941;BME280;62294;48.554;10.202;2023-05-29T03:55:26;91894.38;;;6.58;100.00
73941;BME280;62294;48.554;10.202;2023-05-29T03:57:53;91904.34;;;6.61;100.00
73941;BME280;62294;48.554;10.202;2023-05-29T04:00:20;91908.91;;;6.69;100.00
73941;BME280;62294;48.554;10.202;2023-05-29T04:02:47;91901.38;;;6.76;100.00
73941;BME280;62294;48.554;10.202;2023-05-29T04:05:13;91918.41;;;6.70;100.00
73941;BME280;62294;48.554;10.202;2023-05-29T04:07:40;91926.31;;;6.70;100.00
73941;BME280;62294;48.554;10.202;2023-05-29T04:10:07;91927.88;;;6.71;100.00
73941;BME280;62294;48.554;10.202;2023-05-29T04:12:33;91935.78;;;6.71;100.00
73941;BME280;62294;48.554;10.202;2023-05-29T04:15:00;91949.47;;;6.73;100.00
73941;BME280;62294;48.554;10.202;2023-05-29T04:17:27;91952.00;;;6.78;100.00
73941;BME280;62294;48.554;10.202;2023-05-29T04:19:53;91938.91;;;7.00;100.00
73941;BME280;62294;48.554;10.202;2023-05-29T04:22:20;91923.28;;;7.12;100.00
73941;BME280;62294;48.554;10.202;2023-05-29T04:24:47;91931.69;;;7.14;100.00
73941;BME280;62294;48.554;10.202;2023-05-29T04:27:13;91912.75;;;7.35;100.00
73941;BME280;62294;48.554;10.202;2023-05-29T04:29:42;91910.47;;;7.42;100.00
73941;BME280;62294;48.554;10.202;2023-05-29T04:32:09;91912.38;;;7.41;100.00
73941;BME280;62294;48.554;10.202;2023-05-29T04:34:38;91917.13;;;7.53;100.00
73941;BME280;62294;48.554;10.202;2023-05-29T04:37:05;91926.00;;;7.57;100.00
73941;BME280;62294;48.554;10.202;2023-05-29T04:39:32;91928.25;;;7.72;100.00
73941;BME280;62294;48.554;10.202;2023-05-29T04:41:59;91938.59;;;7.82;100.00
73941;BME280;62294;48.554;10.202;2023-05-29T04:44:27;91927.00;;;7.92;100.00
73941;BME280;62294;48.554;10.202;2023-05-29T04:46:55;91944.47;;;8.01;100.00
73941;BME280;62294;48.554;10.202;2023-05-29T04:49:25;91950.22;;;8.03;100.00
73941;BME280;62294;48.554;10.202;2023-05-29T04:51:51;91958.38;;;8.15;100.00
73941;BME280;62294;48.554;10.202;2023-05-29T04:54:21;91967.94;;;8.25;100.00
73941;BME280;62294;48.554;10.202;2023-05-29T04:56:47;91980.88;;;8.26;100.00
73941;BME280;62294;48.554;10.202;2023-05-29T04:59:14;91990.75;;;8.34;100.00
73941;BME280;62294;48.554;10.202;2023-05-29T05:01:41;91981.81;;;8.52;100.00
73941;BME280;62294;48.554;10.202;2023-05-29T05:04:09;91996.34;;;8.64;100.00
73941;BME280;62294;48.554;10.202;2023-05-29T05:06:36;92018.44;;;8.68;100.00
73941;BME280;62294;48.554;10.202;2023-05-29T05:09:04;92028.66;;;8.83;100.00
73941;BME280;62294;48.554;10.202;2023-05-29T05:11:31;92047.84;;;8.97;100.00
73941;BME280;62294;48.554;10.202;2023-05-29T05:13:57;92055.88;;;9.14;100.00
73941;BME280;62294;48.554;10.202;2023-05-29T05:16:24;92062.34;;;9.39;100.00
73941;BME280;62294;48.554;10.202;2023-05-29T05:18:50;92057.56;;;9.58;100.00
73941;BME280;62294;48.554;10.202;2023-05-29T05:21:17;92073.03;;;9.81;100.00
73941;BME280;62294;48.554;10.202;2023-05-29T05:23:45;92079.91;;;9.99;100.00
73941;BME280;62294;48.554;10.202;2023-05-29T05:26:23;92076.34;;;10.38;100.00
73941;BME280;62294;48.554;10.202;2023-05-29T05:28:50;92088.69;;;10.60;100.00
73941;BME280;62294;48.554;10.202;2023-05-29T05:31:17;92077.00;;;11.07;100.00
73941;BME280;62294;48.554;10.202;2023-05-29T05:33:43;91960.16;;;12.31;100.00
73941;BME280;62294;48.554;10.202;2023-05-29T05:36:10;91796.00;;;14.06;100.00
73941;BME280;62294;48.554;10.202;2023-05-29T05:38:37;91721.56;;;15.59;100.00
73941;BME280;62294;48.554;10.202;2023-05-29T05:41:03;91873.28;;;16.51;100.00
73941;BME280;62294;48.554;10.202;2023-05-29T05:43:30;92048.88;;;18.16;100.00
73941;BME280;62294;48.554;10.202;2023-05-29T05:45:56;92460.84;;;18.93;100.00
73941;BME280;62294;48.554;10.202;2023-05-29T05:48:23;93027.88;;;19.51;100.00
73941;BME280;62294;48.554;10.202;2023-05-29T05:50:50;93521.69;;;20.64;100.00
73941;BME280;62294;48.554;10.202;2023-05-29T05:53:16;94208.94;;;21.60;100.00
73941;BME280;62294;48.554;10.202;2023-05-29T05:55:43;95007.03;;;21.70;100.00
73941;BME280;62294;48.554;10.202;2023-05-29T05:58:10;95441.75;;;21.92;100.00
73941;BME280;62294;48.554;10.202;2023-05-29T06:00:36;95562.53;;;22.73;100.00
73941;BME280;62294;48.554;10.202;2023-05-29T06:03:03;95852.56;;;23.09;100.00
73941;BME280;62294;48.554;10.202;2023-05-29T06:05:30;95980.19;;;23.40;100.00
73941;BME280;62294;48.554;10.202;2023-05-29T06:07:56;96054.31;;;22.33;100.00
73941;BME280;62294;48.554;10.202;2023-05-29T06:10:23;96032.16;;;23.60;100.00
73941;BME280;62294;48.554;10.202;2023-05-29T06:12:50;95894.13;;;24.39;100.00
73941;BME280;62294;48.554;10.202;2023-05-29T06:15:18;95300.59;;;25.67;100.00
73941;BME280;62294;48.554;10.202;2023-05-29T06:17:45;94740.03;;;25.30;100.00
73941;BME280;62294;48.554;10.202;2023-05-29T06:20:11;93649.88;;;24.43;100.00
73941;BME280;62294;48.554;10.202;2023-05-29T06:22:40;93474.25;;;23.50;100.00
73941;BME280;62294;48.554;10.202;2023-05-29T06:25:07;93377.66;;;23.42;100.00
73941;BME280;62294;48.554;10.202;2023-05-29T06:27:35;93152.59;;;22.79;100.00
73941;BME280;62294;48.554;10.202;2023-05-29T06:30:02;92984.97;;;24.28;100.00
73941;BME280;62294;48.554;10.202;2023-05-29T06:32:29;93348.50;;;24.77;100.00
73941;BME280;62294;48.554;10.202;2023-05-29T06:34:56;93614.31;;;25.64;100.00
73941;BME280;62294;48.554;10.202;2023-05-29T06:37:22;93765.44;;;26.21;100.00
73941;BME280;62294;48.554;10.202;2023-05-29T06:39:49;93848.47;;;26.70;100.00
73941;BME280;62294;48.554;10.202;2023-05-29T06:42:16;94326.16;;;27.88;100.00
73941;BME280;62294;48.554;10.202;2023-05-29T06:44:42;94316.50;;;25.43;100.00
73941;BME280;62294;48.554;10.202;2023-05-29T06:47:08;94401.56;;;26.25;100.00
73941;BME280;62294;48.554;10.202;2023-05-29T06:49:35;94356.09;;;23.47;100.00
73941;BME280;62294;48.554;10.202;2023-05-29T06:52:02;94358.59;;;24.16;100.00
73941;BME280;62294;48.554;10.202;2023-05-29T06:54:29;94829.63;;;25.87;100.00
73941;BME280;62294;48.554;10.202;2023-05-29T06:56:56;94967.47;;;25.35;100.00
73941;BME280;62294;48.554;10.202;2023-05-29T06:59:36;94996.38;;;24.74;100.00
73941;BME280;62294;48.554;10.202;2023-05-29T07:02:03;94982.22;;;24.07;100.00
73941;BME280;62294;48.554;10.202;2023-05-29T07:04:29;95116.75;;;25.69;100.00
73941;BME280;62294;48.554;10.202;2023-05-29T07:06:56;95266.69;;;26.99;100.00
73941;BME280;62294;48.554;10.202;2023-05-29T07:09:22;95309.25;;;27.64;100.00
73941;BME280;62294;48.554;10.202;2023-05-29T07:11:50;95436.41;;;27.89;100.00
73941;BME280;62294;48.554;10.202;2023-05-29T07:14:16;95446.78;;;27.59;100.00
73941;BME280;62294;48.554;10.202;2023-05-29T07:16:43;95412.25;;;26.41;100.00
73941;BME280;62294;48.554;10.202;2023-05-29T07:19:09;95438.47;;;26.66;100.00
73941;BME280;62294;48.554;10.202;2023-05-29T07:21:46;95441.66;;;26.06;100.00
73941;BME280;62294;48.554;10.202;2023-05-29T07:24:13;95526.72;;;26.61;100.00
73941;BME280;62294;48.554;10.202;2023-05-29T07:26:40;95515.50;;;26.13;100.00
73941;BME280;62294;48.554;10.202;2023-05-29T07:29:06;95586.59;;;27.32;100.00
73941;BME280;62294;48.554;10.202;2023-05-29T07:31:33;95576.88;;;27.22;100.00
73941;BME280;62294;48.554;10.202;2023-05-29T07:33:59;95531.13;;;24.77;100.00
73941;BME280;62294;48.554;10.202;2023-05-29T07:36:28;95585.81;;;25.82;100.00
73941;BME280;62294;48.554;10.202;2023-05-29T07:38:56;95619.00;;;26.42;100.00
73941;BME280;62294;48.554;10.202;2023-05-29T07:41:24;95610.09;;;23.76;100.00
73941;BME280;62294;48.554;10.202;2023-05-29T07:43:52;95575.09;;;25.77;100.00
73941;BME280;62294;48.554;10.202;2023-05-29T07:46:20;95755.88;;;27.65;100.00
73941;BME280;62294;48.554;10.202;2023-05-29T07:48:47;95781.00;;;27.08;100.00
73941;BME280;62294;48.554;10.202;2023-05-29T07:51:13;95797.75;;;27.89;100.00
73941;BME280;62294;48.554;10.202;2023-05-29T07:53:44;95822.00;;;28.11;100.00
73941;BME280;62294;48.554;10.202;2023-05-29T07:56:11;95864.84;;;27.78;100.00
73941;BME280;62294;48.554;10.202;2023-05-29T07:58:37;95867.88;;;26.17;100.00
73941;BME280;62294;48.554;10.202;2023-05-29T08:01:04;95857.56;;;25.97;100.00
73941;BME280;62294;48.554;10.202;2023-05-29T08:03:31;95855.50;;;26.11;100.00
73941;BME280;62294;48.554;10.202;2023-05-29T08:05:58;95861.25;;;26.44;100.00
73941;BME280;62294;48.554;10.202;2023-05-29T08:08:25;95872.56;;;26.71;100.00
73941;BME280;62294;48.554;10.202;2023-05-29T08:10:52;95882.03;;;26.83;100.00
73941;BME280;62294;48.554;10.202;2023-05-29T08:13:19;95887.38;;;25.93;100.00
73941;BME280;62294;48.554;10.202;2023-05-29T08:15:46;95899.88;;;27.09;100.00
73941;BME280;62294;48.554;10.202;2023-05-29T08:18:13;95903.34;;;26.63;100.00
73941;BME280;62294;48.554;10.202;2023-05-29T08:20:39;95909.53;;;27.74;100.00
73941;BME280;62294;48.554;10.202;2023-05-29T08:23:06;95922.88;;;27.96;100.00
73941;BME280;62294;48.554;10.202;2023-05-29T08:25:33;95935.00;;;28.36;100.00
73941;BME280;62294;48.554;10.202;2023-05-29T08:27:59;95954.16;;;28.69;100.00
73941;BME280;62294;48.554;10.202;2023-05-29T08:30:25;95950.19;;;27.37;100.00
73941;BME280;62294;48.554;10.202;2023-05-29T08:32:52;95935.38;;;27.76;100.00
73941;BME280;62294;48.554;10.202;2023-05-29T08:35:19;95951.38;;;29.22;100.00
73941;BME280;62294;48.554;10.202;2023-05-29T08:37:45;95959.31;;;28.50;100.00
73941;BME280;62294;48.554;10.202;2023-05-29T08:40:12;95969.53;;;29.39;100.00
73941;BME280;62294;48.554;10.202;2023-05-29T08:42:56;95987.56;;;28.54;100.00
73941;BME280;62294;48.554;10.202;2023-05-29T08:45:24;95974.75;;;28.87;100.00
73941;BME280;62294;48.554;10.202;2023-05-29T08:47:53;95994.25;;;27.02;100.00
73941;BME280;62294;48.554;10.202;2023-05-29T08:50:21;95962.19;;;26.99;100.00
73941;BME280;62294;48.554;10.202;2023-05-29T08:52:47;95986.03;;;27.94;100.00
73941;BME280;62294;48.554;10.202;2023-05-29T08:55:14;96008.00;;;27.31;100.00
73941;BME280;62294;48.554;10.202;2023-05-29T08:57:41;96016.06;;;26.33;100.00
73941;BME280;62294;48.554;10.202;2023-05-29T09:00:11;95998.72;;;27.61;100.00
73941;BME280;62294;48.554;10.202;2023-05-29T09:02:42;96014.56;;;29.86;100.00
73941;BME280;62294;48.554;10.202;2023-05-29T09:05:12;96032.28;;;29.89;100.00
73941;BME280;62294;48.554;10.202;2023-05-29T09:07:40;96041.91;;;29.50;100.00
73941;BME280;62294;48.554;10.202;2023-05-29T09:10:08;96056.91;;;25.68;100.00
73941;BME280;62294;48.554;10.202;2023-05-29T09:12:35;96045.63;;;26.83;100.00
73941;BME280;62294;48.554;10.202;2023-05-29T09:15:15;96058.75;;;25.90;100.00
73941;BME280;62294;48.554;10.202;2023-05-29T09:17:43;96062.19;;;25.43;100.00
73941;BME280;62294;48.554;10.202;2023-05-29T09:20:17;96068.31;;;26.27;100.00
73941;BME280;62294;48.554;10.202;2023-05-29T09:22:55;96084.03;;;24.13;100.00
73941;BME280;62294;48.554;10.202;2023-05-29T09:25:23;96085.72;;;23.68;100.00
73941;BME280;62294;48.554;10.202;2023-05-29T09:30:32;96089.31;;;25.25;100.00
73941;BME280;62294;48.554;10.202;2023-05-29T09:32:59;96074.16;;;27.19;100.00
73941;BME280;62294;48.554;10.202;2023-05-29T09:35:34;96075.13;;;26.98;100.00
73941;BME280;62294;48.554;10.202;2023-05-29T09:38:01;96082.59;;;27.52;100.00
73941;BME280;62294;48.554;10.202;2023-05-29T09:40:32;96091.16;;;26.73;100.00
73941;BME280;62294;48.554;10.202;2023-05-29T09:43:10;96078.81;;;27.19;100.00
73941;BME280;62294;48.554;10.202;2023-05-29T09:45:41;96083.81;;;27.80;100.00
73941;BME280;62294;48.554;10.202;2023-05-29T09:48:12;96077.22;;;29.76;100.00
73941;BME280;62294;48.554;10.202;2023-05-29T09:50:39;96093.47;;;27.69;100.00
73941;BME280;62294;48.554;10.202;2023-05-29T09:53:19;96114.19;;;24.75;100.00
73941;BME280;62294;48.554;10.202;2023-05-29T09:55:47;96101.06;;;25.12;100.00
73941;BME280;62294;48.554;10.202;2023-05-29T09:58:15;96089.22;;;26.65;100.00
73941;BME280;62294;48.554;10.202;2023-05-29T10:00:42;96099.34;;;26.91;100.00
73941;BME280;62294;48.554;10.202;2023-05-29T10:03:10;96103.59;;;24.87;100.00
73941;BME280;62294;48.554;10.202;2023-05-29T10:05:41;96107.81;;;24.93;100.00
73941;BME280;62294;48.554;10.202;2023-05-29T10:08:11;96095.13;;;25.55;100.00
73941;BME280;62294;48.554;10.202;2023-05-29T10:10:42;96100.09;;;25.92;100.00
73941;BME280;62294;48.554;10.202;2023-05-29T10:13:13;96098.38;;;26.04;100.00
73941;BME280;62294;48.554;10.202;2023-05-29T10:15:41;96100.78;;;25.14;100.00
73941;BME280;62294;48.554;10.202;2023-05-29T10:18:28;96094.50;;;25.58;100.00
73941;BME280;62294;48.554;10.202;2023-05-29T10:20:59;96079.78;;;26.97;100.00
73941;BME280;62294;48.554;10.202;2023-05-29T10:23:28;96082.66;;;26.66;100.00
73941;BME280;62294;48.554;10.202;2023-05-29T10:26:06;96081.31;;;26.38;100.00
73941;BME280;62294;48.554;10.202;2023-05-29T10:28:39;96074.78;;;27.42;100.00
73941;BME280;62294;48.554;10.202;2023-05-29T10:31:17;96084.44;;;26.06;100.00
73941;BME280;62294;48.554;10.202;2023-05-29T10:34:03;96088.50;;;25.47;100.00
73941;BME280;62294;48.554;10.202;2023-05-29T10:36:44;96082.06;;;26.13;100.00
73941;BME280;62294;48.554;10.202;2023-05-29T10:39:15;96081.53;;;25.94;100.00
73941;BME280;62294;48.554;10.202;2023-05-29T10:41:42;96071.13;;;26.04;100.00
73941;BME280;62294;48.554;10.202;2023-05-29T10:49:29;96068.22;;;28.19;100.00
73941;BME280;62294;48.554;10.202;2023-05-29T10:51:57;96076.25;;;27.05;100.00
73941;BME280;62294;48.554;10.202;2023-05-29T10:54:25;96073.84;;;28.13;100.00
73941;BME280;62294;48.554;10.202;2023-05-29T10:56:57;96067.00;;;29.19;100.00
73941;BME280;62294;48.554;10.202;2023-05-29T10:59:26;96089.44;;;26.95;100.00
73941;BME280;62294;48.554;10.202;2023-05-29T11:01:54;96075.38;;;28.61;100.00
73941;BME280;62294;48.554;10.202;2023-05-29T11:06:48;96079.75;;;25.59;100.00
73941;BME280;62294;48.554;10.202;2023-05-29T11:09:34;96086.00;;;24.71;100.00
73941;BME280;62294;48.554;10.202;2023-05-29T11:12:17;96075.53;;;26.14;100.00
73941;BME280;62294;48.554;10.202;2023-05-29T11:15:04;96059.34;;;27.46;100.00
73941;BME280;62294;48.554;10.202;2023-05-29T11:20:06;96075.66;;;25.70;100.00
73941;BME280;62294;48.554;10.202;2023-05-29T11:25:14;96058.50;;;28.00;100.00
73941;BME280;62294;48.554;10.202;2023-05-29T11:27:43;96072.09;;;27.08;100.00
73941;BME280;62294;48.554;10.202;2023-05-29T11:30:10;96064.03;;;27.37;100.00
73941;BME280;62294;48.554;10.202;2023-05-29T11:32:39;96061.13;;;27.42;100.00
73941;BME280;62294;48.554;10.202;2023-05-29T11:35:10;96057.13;;;27.77;100.00
73941;BME280;62294;48.554;10.202;2023-05-29T11:37:41;96057.00;;;27.02;100.00
73941;BME280;62294;48.554;10.202;2023-05-29T11:40:12;96058.22;;;27.47;100.00
73941;BME280;62294;48.554;10.202;2023-05-29T11:42:43;96060.66;;;26.37;100.00
73941;BME280;62294;48.554;10.202;2023-05-29T11:45:11;96062.38;;;27.53;100.00
73941;BME280;62294;48.554;10.202;2023-05-29T11:48:10;96058.75;;;28.66;100.00
73941;BME280;62294;48.554;10.202;2023-05-29T11:50:37;96055.56;;;29.38;100.00
73941;BME280;62294;48.554;10.202;2023-05-29T11:53:06;96067.47;;;28.09;100.00
73941;BME280;62294;48.554;10.202;2023-05-29T11:55:32;96055.63;;;28.76;100.00
73941;BME280;62294;48.554;10.202;2023-05-29T11:58:00;96068.38;;;26.69;100.00
73941;BME280;62294;48.554;10.202;2023-05-29T12:00:35;96062.91;;;26.61;100.00
73941;BME280;62294;48.554;10.202;2023-05-29T12:03:03;96061.56;;;26.16;100.00
73941;BME280;62294;48.554;10.202;2023-05-29T12:05:31;96058.75;;;27.15;100.00
73941;BME280;62294;48.554;10.202;2023-05-29T12:07:58;96057.50;;;28.84;100.00
73941;BME280;62294;48.554;10.202;2023-05-29T12:10:27;96058.75;;;28.16;100.00
73941;BME280;62294;48.554;10.202;2023-05-29T12:12:59;96052.97;;;28.88;100.00
73941;BME280;62294;48.554;10.202;2023-05-29T12:15:29;96046.13;;;29.60;100.00
73941;BME280;62294;48.554;10.202;2023-05-29T12:17:56;96052.50;;;28.57;100.00
73941;BME280;62294;48.554;10.202;2023-05-29T12:20:24;96055.91;;;28.62;100.00
73941;BME280;62294;48.554;10.202;2023-05-29T12:22:59;96060.59;;;28.03;100.00
73941;BME280;62294;48.554;10.202;2023-05-29T12:25:27;96051.66;;;29.06;100.00
73941;BME280;62294;48.554;10.202;2023-05-29T12:27:57;96055.13;;;27.57;100.00
73941;BME280;62294;48.554;10.202;2023-05-29T12:30:24;96055.19;;;26.29;100.00
73941;BME280;62294;48.554;10.202;2023-05-29T12:32:59;96071.75;;;26.84;100.00
73941;BME280;62294;48.554;10.202;2023-05-29T12:35:28;96077.31;;;25.88;100.00
73941;BME280;62294;48.554;10.202;2023-05-29T12:37:59;96063.69;;;26.36;100.00
73941;BME280;62294;48.554;10.202;2023-05-29T12:40:30;96064.06;;;26.03;100.00
73941;BME280;62294;48.554;10.202;2023-05-29T12:43:11;96070.97;;;25.39;100.00
73941;BME280;62294;48.554;10.202;2023-05-29T12:45:37;96082.84;;;26.05;100.00
73941;BME280;62294;48.554;10.202;2023-05-29T12:48:05;96073.81;;;26.52;100.00
73941;BME280;62294;48.554;10.202;2023-05-29T12:50:34;96077.16;;;26.41;100.00
73941;BME280;62294;48.554;10.202;2023-05-29T12:53:02;96077.75;;;26.12;100.00
73941;BME280;62294;48.554;10.202;2023-05-29T12:55:31;96061.47;;;26.63;100.00
73941;BME280;62294;48.554;10.202;2023-05-29T12:57:59;96074.81;;;25.61;100.00
73941;BME280;62294;48.554;10.202;2023-05-29T13:00:26;96066.25;;;25.23;100.00
73941;BME280;62294;48.554;10.202;2023-05-29T13:02:53;96069.78;;;25.01;100.00
73941;BME280;62294;48.554;10.202;2023-05-29T13:05:20;96066.75;;;25.47;100.00
73941;BME280;62294;48.554;10.202;2023-05-29T13:07:49;96055.03;;;27.11;100.00
73941;BME280;62294;48.554;10.202;2023-05-29T13:10:17;96062.56;;;27.31;100.00